sensor_id;sensor_type;location;lat;lon;timestamp;P1;durP1;ratioP1;P2;durP2;ratioP2
28551;SDS011;15752;49.560;8.708;2023-05-14T00:00:48;3.50;;;2.80;;
28551;SDS011;15752;49.560;8.708;2023-05-14T00:03:18;3.23;;;2.97;;
28551;SDS011;15752;49.560;8.708;2023-05-14T00:05:47;3.17;;;2.87;;
28551;SDS011;15752;49.560;8.708;2023-05-14T00:08:15;3.10;;;2.80;;
28551;SDS011;15752;49.560;8.708;2023-05-14T00:10:43;3.03;;;2.77;;
28551;SDS011;15752;49.560;8.708;2023-05-14T00:13:12;4.33;;;3.13;;
28551;SDS011;15752;49.560;8.708;2023-05-14T00:15:40;3.87;;;2.60;;
28551;SDS011;15752;49.560;8.708;2023-05-14T00:18:10;3.10;;;2.70;;
28551;SDS011;15752;49.560;8.708;2023-05-14T00:20:40;3.13;;;2.90;;
28551;SDS011;15752;49.560;8.708;2023-05-14T00:23:09;3.60;;;3.20;;
28551;SDS011;15752;49.560;8.708;2023-05-14T00:25:37;3.30;;;3.00;;
28551;SDS011;15752;49.560;8.708;2023-05-14T00:28:06;3.20;;;2.90;;
28551;SDS011;15752;49.560;8.708;2023-05-14T00:30:34;3.53;;;2.87;;
28551;SDS011;15752;49.560;8.708;2023-05-14T00:33:03;3.23;;;2.93;;
28551;SDS011;15752;49.560;8.708;2023-05-14T00:35:31;3.73;;;3.30;;
28551;SDS011;15752;49.560;8.708;2023-05-14T00:38:02;3.63;;;3.10;;
28551;SDS011;15752;49.560;8.708;2023-05-14T00:40:31;5.73;;;3.10;;
28551;SDS011;15752;49.560;8.708;2023-05-14T00:42:59;5.23;;;2.90;;
28551;SDS011;15752;49.560;8.708;2023-05-14T00:45:28;3.40;;;3.10;;
28551;SDS011;15752;49.560;8.708;2023-05-14T00:47:56;3.33;;;2.90;;
28551;SDS011;15752;49.560;8.708;2023-05-14T00:50:25;3.30;;;3.00;;
28551;SDS011;15752;49.560;8.708;2023-05-14T00:52:54;4.40;;;2.63;;
28551;SDS011;15752;49.560;8.708;2023-05-14T00:55:24;5.47;;;2.97;;
28551;SDS011;15752;49.560;8.708;2023-05-14T00:57:53;5.87;;;2.90;;
28551;SDS011;15752;49.560;8.708;2023-05-14T01:00:24;3.57;;;2.73;;
28551;SDS011;15752;49.560;8.708;2023-05-14T01:02:53;3.33;;;2.90;;
28551;SDS011;15752;49.560;8.708;2023-05-14T01:05:22;2.70;;;2.50;;
28551;SDS011;15752;49.560;8.708;2023-05-14T01:07:57;3.33;;;2.40;;
28551;SDS011;15752;49.560;8.708;2023-05-14T01:10:35;4.03;;;2.70;;
28551;SDS011;15752;49.560;8.708;2023-05-14T01:13:12;2.60;;;2.40;;
28551;SDS011;15752;49.560;8.708;2023-05-14T01:15:46;3.23;;;2.73;;
28551;SDS011;15752;49.560;8.708;2023-05-14T01:18:16;4.57;;;2.60;;
28551;SDS011;15752;49.560;8.708;2023-05-14T01:20:48;3.47;;;3.00;;
28551;SDS011;15752;49.560;8.708;2023-05-14T01:23:19;3.20;;;2.90;;
28551;SDS011;15752;49.560;8.708;2023-05-14T01:25:47;3.07;;;2.77;;
28551;SDS011;15752;49.560;8.708;2023-05-14T01:28:16;3.20;;;2.90;;
28551;SDS011;15752;49.560;8.708;2023-05-14T01:30:49;4.60;;;2.40;;
28551;SDS011;15752;49.560;8.708;2023-05-14T01:33:21;2.33;;;2.13;;
28551;SDS011;15752;49.560;8.708;2023-05-14T01:35:54;4.43;;;2.67;;
28551;SDS011;15752;49.560;8.708;2023-05-14T01:38:25;2.60;;;2.40;;
28551;SDS011;15752;49.560;8.708;2023-05-14T01:40:56;3.20;;;2.37;;
28551;SDS011;15752;49.560;8.708;2023-05-14T01:43:25;3.90;;;2.47;;
28551;SDS011;15752;49.560;8.708;2023-05-14T01:45:55;3.60;;;2.40;;
28551;SDS011;15752;49.560;8.708;2023-05-14T01:48:23;3.40;;;2.63;;
28551;SDS011;15752;49.560;8.708;2023-05-14T01:50:52;3.10;;;2.80;;
28551;SDS011;15752;49.560;8.708;2023-05-14T01:53:20;2.70;;;2.50;;
28551;SDS011;15752;49.560;8.708;2023-05-14T01:55:50;3.30;;;2.60;;
28551;SDS011;15752;49.560;8.708;2023-05-14T01:58:18;4.00;;;2.50;;
28551;SDS011;15752;49.560;8.708;2023-05-14T02:00:47;3.53;;;2.47;;
28551;SDS011;15752;49.560;8.708;2023-05-14T02:03:15;3.03;;;2.70;;
28551;SDS011;15752;49.560;8.708;2023-05-14T02:05:43;2.63;;;2.43;;
28551;SDS011;15752;49.560;8.708;2023-05-14T02:08:12;2.73;;;2.40;;
28551;SDS011;15752;49.560;8.708;2023-05-14T02:10:41;3.10;;;2.50;;
28551;SDS011;15752;49.560;8.708;2023-05-14T02:13:10;2.80;;;2.50;;
28551;SDS011;15752;49.560;8.708;2023-05-14T02:15:39;2.73;;;2.20;;
28551;SDS011;15752;49.560;8.708;2023-05-14T02:18:07;2.90;;;2.13;;
28551;SDS011;15752;49.560;8.708;2023-05-14T02:20:36;3.07;;;2.50;;
28551;SDS011;15752;49.560;8.708;2023-05-14T02:23:04;2.73;;;2.43;;
28551;SDS011;15752;49.560;8.708;2023-05-14T02:25:33;3.03;;;2.30;;
28551;SDS011;15752;49.560;8.708;2023-05-14T02:28:02;2.47;;;2.27;;
28551;SDS011;15752;49.560;8.708;2023-05-14T02:30:32;4.37;;;2.70;;
28551;SDS011;15752;49.560;8.708;2023-05-14T02:33:00;2.90;;;2.70;;
28551;SDS011;15752;49.560;8.708;2023-05-14T02:35:29;2.93;;;2.73;;
28551;SDS011;15752;49.560;8.708;2023-05-14T02:37:58;4.53;;;2.30;;
28551;SDS011;15752;49.560;8.708;2023-05-14T02:40:26;2.90;;;2.17;;
28551;SDS011;15752;49.560;8.708;2023-05-14T02:42:55;3.07;;;2.40;;
28551;SDS011;15752;49.560;8.708;2023-05-14T02:45:23;2.50;;;2.30;;
28551;SDS011;15752;49.560;8.708;2023-05-14T02:47:53;2.60;;;2.40;;
28551;SDS011;15752;49.560;8.708;2023-05-14T02:50:22;2.53;;;2.33;;
28551;SDS011;15752;49.560;8.708;2023-05-14T02:52:51;6.23;;;2.90;;
28551;SDS011;15752;49.560;8.708;2023-05-14T02:55:20;2.97;;;2.60;;
28551;SDS011;15752;49.560;8.708;2023-05-14T02:57:48;2.77;;;2.47;;
28551;SDS011;15752;49.560;8.708;2023-05-14T03:00:18;2.90;;;2.53;;
28551;SDS011;15752;49.560;8.708;2023-05-14T03:02:48;3.40;;;2.40;;
28551;SDS011;15752;49.560;8.708;2023-05-14T03:05:18;5.23;;;2.90;;
28551;SDS011;15752;49.560;8.708;2023-05-14T03:07:48;3.43;;;2.40;;
28551;SDS011;15752;49.560;8.708;2023-05-14T03:10:19;2.83;;;2.63;;
28551;SDS011;15752;49.560;8.708;2023-05-14T03:12:47;3.13;;;2.83;;
28551;SDS011;15752;49.560;8.708;2023-05-14T03:15:16;3.40;;;2.57;;
28551;SDS011;15752;49.560;8.708;2023-05-14T03:17:44;3.17;;;2.87;;
28551;SDS011;15752;49.560;8.708;2023-05-14T03:20:14;4.93;;;2.43;;
28551;SDS011;15752;49.560;8.708;2023-05-14T03:22:44;5.60;;;2.80;;
28551;SDS011;15752;49.560;8.708;2023-05-14T03:25:12;2.70;;;2.50;;
28551;SDS011;15752;49.560;8.708;2023-05-14T03:27:41;2.53;;;2.30;;
28551;SDS011;15752;49.560;8.708;2023-05-14T03:30:10;2.73;;;2.53;;
28551;SDS011;15752;49.560;8.708;2023-05-14T03:32:39;3.27;;;2.80;;
28551;SDS011;15752;49.560;8.708;2023-05-14T03:35:08;3.20;;;2.90;;
28551;SDS011;15752;49.560;8.708;2023-05-14T03:37:36;3.83;;;3.10;;
28551;SDS011;15752;49.560;8.708;2023-05-14T03:40:07;4.40;;;3.17;;
28551;SDS011;15752;49.560;8.708;2023-05-14T03:42:36;3.50;;;3.03;;
28551;SDS011;15752;49.560;8.708;2023-05-14T03:45:05;4.70;;;3.00;;
28551;SDS011;15752;49.560;8.708;2023-05-14T03:47:35;3.83;;;2.70;;
28551;SDS011;15752;49.560;8.708;2023-05-14T03:50:05;4.20;;;3.03;;
28551;SDS011;15752;49.560;8.708;2023-05-14T03:52:35;2.93;;;2.70;;
28551;SDS011;15752;49.560;8.708;2023-05-14T03:55:03;2.73;;;2.50;;
28551;SDS011;15752;49.560;8.708;2023-05-14T03:57:34;3.00;;;2.70;;
28551;SDS011;15752;49.560;8.708;2023-05-14T04:00:03;3.60;;;2.50;;
28551;SDS011;15752;49.560;8.708;2023-05-14T04:02:41;3.60;;;2.47;;
28551;SDS011;15752;49.560;8.708;2023-05-14T04:05:10;2.77;;;2.57;;
28551;SDS011;15752;49.560;8.708;2023-05-14T04:07:39;4.80;;;2.57;;
28551;SDS011;15752;49.560;8.708;2023-05-14T04:10:07;3.20;;;2.90;;
28551;SDS011;15752;49.560;8.708;2023-05-14T04:12:38;4.03;;;3.30;;
28551;SDS011;15752;49.560;8.708;2023-05-14T04:15:07;3.30;;;2.60;;
28551;SDS011;15752;49.560;8.708;2023-05-14T04:17:37;3.83;;;2.43;;
28551;SDS011;15752;49.560;8.708;2023-05-14T04:20:06;2.77;;;2.57;;
28551;SDS011;15752;49.560;8.708;2023-05-14T04:22:36;2.93;;;2.50;;
28551;SDS011;15752;49.560;8.708;2023-05-14T04:25:05;3.30;;;3.00;;
28551;SDS011;15752;49.560;8.708;2023-05-14T04:27:34;3.23;;;2.93;;
28551;SDS011;15752;49.560;8.708;2023-05-14T04:30:05;4.67;;;2.70;;
28551;SDS011;15752;49.560;8.708;2023-05-14T04:32:35;2.93;;;2.73;;
28551;SDS011;15752;49.560;8.708;2023-05-14T04:35:03;2.93;;;2.63;;
28551;SDS011;15752;49.560;8.708;2023-05-14T04:37:34;3.70;;;3.17;;
28551;SDS011;15752;49.560;8.708;2023-05-14T04:40:03;3.40;;;2.70;;
28551;SDS011;15752;49.560;8.708;2023-05-14T04:42:33;2.93;;;2.73;;
28551;SDS011;15752;49.560;8.708;2023-05-14T04:45:01;5.73;;;3.13;;
28551;SDS011;15752;49.560;8.708;2023-05-14T04:47:33;5.70;;;3.07;;
28551;SDS011;15752;49.560;8.708;2023-05-14T04:50:01;4.53;;;3.50;;
28551;SDS011;15752;49.560;8.708;2023-05-14T04:52:31;3.50;;;3.20;;
28551;SDS011;15752;49.560;8.708;2023-05-14T04:54:59;3.17;;;2.87;;
28551;SDS011;15752;49.560;8.708;2023-05-14T04:57:28;4.80;;;3.20;;
28551;SDS011;15752;49.560;8.708;2023-05-14T04:59:56;4.17;;;3.10;;
28551;SDS011;15752;49.560;8.708;2023-05-14T05:02:26;3.50;;;3.00;;
28551;SDS011;15752;49.560;8.708;2023-05-14T05:04:55;4.20;;;3.60;;
28551;SDS011;15752;49.560;8.708;2023-05-14T05:07:23;5.40;;;3.43;;
28551;SDS011;15752;49.560;8.708;2023-05-14T05:09:52;4.83;;;3.30;;
28551;SDS011;15752;49.560;8.708;2023-05-14T05:12:20;3.50;;;3.20;;
28551;SDS011;15752;49.560;8.708;2023-05-14T05:14:49;3.43;;;3.13;;
28551;SDS011;15752;49.560;8.708;2023-05-14T05:17:17;4.60;;;2.90;;
28551;SDS011;15752;49.560;8.708;2023-05-14T05:19:47;3.93;;;3.33;;
28551;SDS011;15752;49.560;8.708;2023-05-14T05:22:16;4.37;;;3.63;;
28551;SDS011;15752;49.560;8.708;2023-05-14T05:24:45;3.80;;;3.40;;
28551;SDS011;15752;49.560;8.708;2023-05-14T05:27:15;3.87;;;3.17;;
28551;SDS011;15752;49.560;8.708;2023-05-14T05:29:43;4.17;;;3.60;;
28551;SDS011;15752;49.560;8.708;2023-05-14T05:32:12;3.83;;;3.50;;
28551;SDS011;15752;49.560;8.708;2023-05-14T05:34:40;3.50;;;3.20;;
28551;SDS011;15752;49.560;8.708;2023-05-14T05:37:11;3.63;;;3.33;;
28551;SDS011;15752;49.560;8.708;2023-05-14T05:39:40;4.80;;;3.90;;
28551;SDS011;15752;49.560;8.708;2023-05-14T05:42:08;4.20;;;3.10;;
28551;SDS011;15752;49.560;8.708;2023-05-14T05:44:37;3.17;;;2.87;;
28551;SDS011;15752;49.560;8.708;2023-05-14T05:47:05;3.77;;;3.17;;
28551;SDS011;15752;49.560;8.708;2023-05-14T05:49:33;2.70;;;2.50;;
28551;SDS011;15752;49.560;8.708;2023-05-14T05:52:03;4.07;;;3.67;;
28551;SDS011;15752;49.560;8.708;2023-05-14T05:54:33;3.67;;;3.37;;
28551;SDS011;15752;49.560;8.708;2023-05-14T05:57:01;5.17;;;3.77;;
28551;SDS011;15752;49.560;8.708;2023-05-14T05:59:30;4.90;;;4.47;;
28551;SDS011;15752;49.560;8.708;2023-05-14T06:01:59;5.63;;;3.67;;
28551;SDS011;15752;49.560;8.708;2023-05-14T06:04:27;4.77;;;3.53;;
28551;SDS011;15752;49.560;8.708;2023-05-14T06:06:55;4.30;;;3.60;;
28551;SDS011;15752;49.560;8.708;2023-05-14T06:09:24;3.83;;;3.50;;
28551;SDS011;15752;49.560;8.708;2023-05-14T06:11:54;3.70;;;3.40;;
28551;SDS011;15752;49.560;8.708;2023-05-14T06:14:22;4.00;;;3.00;;
28551;SDS011;15752;49.560;8.708;2023-05-14T06:16:50;5.77;;;3.63;;
28551;SDS011;15752;49.560;8.708;2023-05-14T06:19:19;4.33;;;3.90;;
28551;SDS011;15752;49.560;8.708;2023-05-14T06:21:49;4.00;;;3.60;;
28551;SDS011;15752;49.560;8.708;2023-05-14T06:24:17;4.83;;;3.40;;
28551;SDS011;15752;49.560;8.708;2023-05-14T06:26:46;6.00;;;3.83;;
28551;SDS011;15752;49.560;8.708;2023-05-14T06:29:16;3.47;;;3.00;;
28551;SDS011;15752;49.560;8.708;2023-05-14T06:31:45;3.60;;;3.30;;
28551;SDS011;15752;49.560;8.708;2023-05-14T06:34:13;3.80;;;3.50;;
28551;SDS011;15752;49.560;8.708;2023-05-14T06:36:42;4.20;;;3.80;;
28551;SDS011;15752;49.560;8.708;2023-05-14T06:39:10;3.90;;;3.50;;
28551;SDS011;15752;49.560;8.708;2023-05-14T06:41:39;3.87;;;3.47;;
28551;SDS011;15752;49.560;8.708;2023-05-14T06:44:13;4.13;;;3.73;;
28551;SDS011;15752;49.560;8.708;2023-05-14T06:46:42;4.90;;;3.90;;
28551;SDS011;15752;49.560;8.708;2023-05-14T06:49:11;5.10;;;3.90;;
28551;SDS011;15752;49.560;8.708;2023-05-14T06:51:39;3.80;;;3.40;;
28551;SDS011;15752;49.560;8.708;2023-05-14T06:54:08;4.63;;;4.10;;
28551;SDS011;15752;49.560;8.708;2023-05-14T06:56:36;5.80;;;3.70;;
28551;SDS011;15752;49.560;8.708;2023-05-14T06:59:05;4.30;;;3.77;;
28551;SDS011;15752;49.560;8.708;2023-05-14T07:01:34;4.97;;;3.80;;
28551;SDS011;15752;49.560;8.708;2023-05-14T07:04:04;4.30;;;3.90;;
28551;SDS011;15752;49.560;8.708;2023-05-14T07:06:32;4.40;;;4.00;;
28551;SDS011;15752;49.560;8.708;2023-05-14T07:09:01;4.13;;;3.73;;
28551;SDS011;15752;49.560;8.708;2023-05-14T07:11:30;5.10;;;4.60;;
28551;SDS011;15752;49.560;8.708;2023-05-14T07:13:58;5.30;;;4.53;;
28551;SDS011;15752;49.560;8.708;2023-05-14T07:16:27;5.50;;;3.80;;
28551;SDS011;15752;49.560;8.708;2023-05-14T07:18:55;3.90;;;3.60;;
28551;SDS011;15752;49.560;8.708;2023-05-14T07:21:25;4.47;;;3.67;;
28551;SDS011;15752;49.560;8.708;2023-05-14T07:23:54;3.70;;;3.40;;
28551;SDS011;15752;49.560;8.708;2023-05-14T07:26:22;3.97;;;3.57;;
28551;SDS011;15752;49.560;8.708;2023-05-14T07:28:51;4.40;;;3.63;;
28551;SDS011;15752;49.560;8.708;2023-05-14T07:31:20;3.53;;;3.17;;
28551;SDS011;15752;49.560;8.708;2023-05-14T07:33:48;3.67;;;3.30;;
28551;SDS011;15752;49.560;8.708;2023-05-14T07:36:17;3.93;;;3.30;;
28551;SDS011;15752;49.560;8.708;2023-05-14T07:38:46;4.50;;;3.90;;
28551;SDS011;15752;49.560;8.708;2023-05-14T07:41:15;3.87;;;3.40;;
28551;SDS011;15752;49.560;8.708;2023-05-14T07:43:43;4.50;;;4.03;;
28551;SDS011;15752;49.560;8.708;2023-05-14T07:46:12;3.40;;;3.10;;
28551;SDS011;15752;49.560;8.708;2023-05-14T07:48:41;3.97;;;3.57;;
28551;SDS011;15752;49.560;8.708;2023-05-14T07:51:10;3.93;;;3.63;;
28551;SDS011;15752;49.560;8.708;2023-05-14T07:53:38;3.57;;;3.27;;
28551;SDS011;15752;49.560;8.708;2023-05-14T07:56:08;3.77;;;3.40;;
28551;SDS011;15752;49.560;8.708;2023-05-14T07:58:36;4.13;;;3.27;;
28551;SDS011;15752;49.560;8.708;2023-05-14T08:01:05;4.60;;;3.23;;
28551;SDS011;15752;49.560;8.708;2023-05-14T08:03:34;3.97;;;3.57;;
28551;SDS011;15752;49.560;8.708;2023-05-14T08:06:03;4.70;;;3.20;;
28551;SDS011;15752;49.560;8.708;2023-05-14T08:08:31;5.00;;;3.53;;
28551;SDS011;15752;49.560;8.708;2023-05-14T08:11:00;3.67;;;3.33;;
28551;SDS011;15752;49.560;8.708;2023-05-14T08:13:31;4.30;;;3.63;;
28551;SDS011;15752;49.560;8.708;2023-05-14T08:15:59;4.00;;;3.60;;
28551;SDS011;15752;49.560;8.708;2023-05-14T08:18:28;3.87;;;3.47;;
28551;SDS011;15752;49.560;8.708;2023-05-14T08:20:56;4.13;;;3.73;;
28551;SDS011;15752;49.560;8.708;2023-05-14T08:23:25;3.90;;;3.50;;
28551;SDS011;15752;49.560;8.708;2023-05-14T08:25:54;4.07;;;3.30;;
28551;SDS011;15752;49.560;8.708;2023-05-14T08:28:22;4.57;;;3.70;;
28551;SDS011;15752;49.560;8.708;2023-05-14T08:30:52;3.47;;;3.17;;
28551;SDS011;15752;49.560;8.708;2023-05-14T08:33:20;3.73;;;3.40;;
28551;SDS011;15752;49.560;8.708;2023-05-14T08:35:49;3.87;;;3.47;;
28551;SDS011;15752;49.560;8.708;2023-05-14T08:38:19;4.63;;;3.57;;
28551;SDS011;15752;49.560;8.708;2023-05-14T08:40:48;3.70;;;3.40;;
28551;SDS011;15752;49.560;8.708;2023-05-14T08:43:24;3.13;;;2.83;;
28551;SDS011;15752;49.560;8.708;2023-05-14T08:45:59;4.57;;;3.43;;
28551;SDS011;15752;49.560;8.708;2023-05-14T08:48:32;3.57;;;3.27;;
28551;SDS011;15752;49.560;8.708;2023-05-14T08:51:01;3.83;;;3.50;;
28551;SDS011;15752;49.560;8.708;2023-05-14T08:53:30;4.40;;;4.00;;
28551;SDS011;15752;49.560;8.708;2023-05-14T08:55:59;3.47;;;3.10;;
28551;SDS011;15752;49.560;8.708;2023-05-14T08:58:28;3.70;;;3.40;;
28551;SDS011;15752;49.560;8.708;2023-05-14T09:00:56;3.83;;;3.43;;
28551;SDS011;15752;49.560;8.708;2023-05-14T09:03:26;3.45;;;3.15;;
28551;SDS011;15752;49.560;8.708;2023-05-14T09:05:56;3.83;;;3.53;;
28551;SDS011;15752;49.560;8.708;2023-05-14T09:08:25;3.75;;;3.42;;
28551;SDS011;15752;49.560;8.708;2023-05-14T09:10:54;3.57;;;3.27;;
28551;SDS011;15752;49.560;8.708;2023-05-14T09:13:22;3.57;;;3.27;;
28551;SDS011;15752;49.560;8.708;2023-05-14T09:15:53;3.30;;;3.00;;
28551;SDS011;15752;49.560;8.708;2023-05-14T09:18:24;3.65;;;3.25;;
28551;SDS011;15752;49.560;8.708;2023-05-14T09:20:52;3.57;;;3.07;;
28551;SDS011;15752;49.560;8.708;2023-05-14T09:23:21;3.57;;;3.27;;
28551;SDS011;15752;49.560;8.708;2023-05-14T09:25:52;3.47;;;3.08;;
28551;SDS011;15752;49.560;8.708;2023-05-14T09:28:21;3.30;;;2.97;;
28551;SDS011;15752;49.560;8.708;2023-05-14T09:30:53;3.10;;;2.80;;
28551;SDS011;15752;49.560;8.708;2023-05-14T09:33:26;3.78;;;3.38;;
28551;SDS011;15752;49.560;8.708;2023-05-14T09:35:59;3.65;;;3.35;;
28551;SDS011;15752;49.560;8.708;2023-05-14T09:38:29;2.90;;;2.65;;
28551;SDS011;15752;49.560;8.708;2023-05-14T09:40:58;3.90;;;3.50;;
28551;SDS011;15752;49.560;8.708;2023-05-14T09:43:27;3.15;;;2.85;;
28551;SDS011;15752;49.560;8.708;2023-05-14T09:45:55;4.18;;;3.78;;
28551;SDS011;15752;49.560;8.708;2023-05-14T09:48:24;3.38;;;3.08;;
28551;SDS011;15752;49.560;8.708;2023-05-14T09:50:54;3.53;;;3.17;;
28551;SDS011;15752;49.560;8.708;2023-05-14T09:53:22;3.53;;;2.83;;
28551;SDS011;15752;49.560;8.708;2023-05-14T09:55:51;3.20;;;2.85;;
28551;SDS011;15752;49.560;8.708;2023-05-14T09:58:20;3.95;;;3.55;;
28551;SDS011;15752;49.560;8.708;2023-05-14T10:00:48;4.05;;;3.30;;
28551;SDS011;15752;49.560;8.708;2023-05-14T10:03:18;3.45;;;3.15;;
28551;SDS011;15752;49.560;8.708;2023-05-14T10:05:48;3.20;;;2.90;;
28551;SDS011;15752;49.560;8.708;2023-05-14T10:08:21;3.47;;;3.10;;
28551;SDS011;15752;49.560;8.708;2023-05-14T10:10:53;3.22;;;2.95;;
28551;SDS011;15752;49.560;8.708;2023-05-14T10:13:23;3.47;;;3.00;;
28551;SDS011;15752;49.560;8.708;2023-05-14T10:16:00;5.50;;;3.42;;
28551;SDS011;15752;49.560;8.708;2023-05-14T10:18:38;3.30;;;2.95;;
28551;SDS011;15752;49.560;8.708;2023-05-14T10:21:12;3.38;;;3.03;;
28551;SDS011;15752;49.560;8.708;2023-05-14T10:23:43;2.97;;;2.78;;
28551;SDS011;15752;49.560;8.708;2023-05-14T10:26:12;3.20;;;2.90;;
28551;SDS011;15752;49.560;8.708;2023-05-14T10:28:41;3.08;;;2.70;;
28551;SDS011;15752;49.560;8.708;2023-05-14T10:31:10;2.97;;;2.78;;
28551;SDS011;15752;49.560;8.708;2023-05-14T10:33:46;3.75;;;2.80;;
28551;SDS011;15752;49.560;8.708;2023-05-14T10:36:16;5.80;;;2.97;;
28551;SDS011;15752;49.560;8.708;2023-05-14T10:38:46;3.55;;;3.17;;
28551;SDS011;15752;49.560;8.708;2023-05-14T10:41:23;3.65;;;2.90;;
28551;SDS011;15752;49.560;8.708;2023-05-14T10:43:51;3.25;;;2.95;;
28551;SDS011;15752;49.560;8.708;2023-05-14T10:46:20;3.40;;;3.10;;
28551;SDS011;15752;49.560;8.708;2023-05-14T10:48:48;3.42;;;2.80;;
28551;SDS011;15752;49.560;8.708;2023-05-14T10:51:17;3.95;;;3.17;;
28551;SDS011;15752;49.560;8.708;2023-05-14T10:53:49;3.03;;;2.72;;
28551;SDS011;15752;49.560;8.708;2023-05-14T10:56:19;3.47;;;3.13;;
28551;SDS011;15752;49.560;8.708;2023-05-14T10:58:47;3.03;;;2.72;;
28551;SDS011;15752;49.560;8.708;2023-05-14T11:01:17;2.85;;;2.55;;
28551;SDS011;15752;49.560;8.708;2023-05-14T11:03:45;3.17;;;2.88;;
28551;SDS011;15752;49.560;8.708;2023-05-14T11:06:14;3.10;;;2.80;;
28551;SDS011;15752;49.560;8.708;2023-05-14T11:08:43;3.60;;;3.25;;
28551;SDS011;15752;49.560;8.708;2023-05-14T11:11:13;4.25;;;3.85;;
28551;SDS011;15752;49.560;8.708;2023-05-14T11:13:44;4.20;;;3.72;;
28551;SDS011;15752;49.560;8.708;2023-05-14T11:16:13;3.92;;;3.53;;
28551;SDS011;15752;49.560;8.708;2023-05-14T11:18:52;3.92;;;3.53;;
28551;SDS011;15752;49.560;8.708;2023-05-14T11:21:33;3.15;;;2.92;;
28551;SDS011;15752;49.560;8.708;2023-05-14T11:24:04;2.70;;;2.50;;
28551;SDS011;15752;49.560;8.708;2023-05-14T11:26:34;3.47;;;3.17;;
28551;SDS011;15752;49.560;8.708;2023-05-14T11:29:03;5.25;;;2.75;;
28551;SDS011;15752;49.560;8.708;2023-05-14T11:31:32;4.68;;;3.28;;
28551;SDS011;15752;49.560;8.708;2023-05-14T11:34:02;3.13;;;2.78;;
28551;SDS011;15752;49.560;8.708;2023-05-14T11:36:32;4.63;;;3.08;;
28551;SDS011;15752;49.560;8.708;2023-05-14T11:39:03;3.15;;;2.85;;
28551;SDS011;15752;49.560;8.708;2023-05-14T11:41:34;2.75;;;2.53;;
28551;SDS011;15752;49.560;8.708;2023-05-14T11:44:03;3.35;;;3.05;;
28551;SDS011;15752;49.560;8.708;2023-05-14T11:46:34;5.10;;;3.00;;
28551;SDS011;15752;49.560;8.708;2023-05-14T11:49:02;3.08;;;2.75;;
28551;SDS011;15752;49.560;8.708;2023-05-14T11:51:32;3.10;;;2.80;;
28551;SDS011;15752;49.560;8.708;2023-05-14T11:54:00;3.25;;;2.95;;
28551;SDS011;15752;49.560;8.708;2023-05-14T11:56:29;2.92;;;2.65;;
28551;SDS011;15752;49.560;8.708;2023-05-14T11:58:59;2.85;;;2.50;;
28551;SDS011;15752;49.560;8.708;2023-05-14T12:01:27;3.03;;;2.60;;
28551;SDS011;15752;49.560;8.708;2023-05-14T12:03:59;2.67;;;2.47;;
28551;SDS011;15752;49.560;8.708;2023-05-14T12:06:29;2.75;;;2.55;;
28551;SDS011;15752;49.560;8.708;2023-05-14T12:08:58;2.80;;;2.60;;
28551;SDS011;15752;49.560;8.708;2023-05-14T12:11:29;3.05;;;2.70;;
28551;SDS011;15752;49.560;8.708;2023-05-14T12:13:59;4.10;;;2.67;;
28551;SDS011;15752;49.560;8.708;2023-05-14T12:16:28;2.83;;;2.58;;
28551;SDS011;15752;49.560;8.708;2023-05-14T12:19:00;3.55;;;2.90;;
28551;SDS011;15752;49.560;8.708;2023-05-14T12:21:28;4.22;;;2.90;;
28551;SDS011;15752;49.560;8.708;2023-05-14T12:23:57;2.88;;;2.67;;
28551;SDS011;15752;49.560;8.708;2023-05-14T12:26:26;3.17;;;2.72;;
28551;SDS011;15752;49.560;8.708;2023-05-14T12:28:56;3.00;;;2.80;;
28551;SDS011;15752;49.560;8.708;2023-05-14T12:31:28;3.35;;;2.92;;
28551;SDS011;15752;49.560;8.708;2023-05-14T12:33:56;5.07;;;3.03;;
28551;SDS011;15752;49.560;8.708;2023-05-14T12:36:28;3.03;;;2.72;;
28551;SDS011;15752;49.560;8.708;2023-05-14T12:38:58;3.30;;;2.60;;
28551;SDS011;15752;49.560;8.708;2023-05-14T12:41:29;2.92;;;2.70;;
28551;SDS011;15752;49.560;8.708;2023-05-14T12:43:57;3.05;;;2.85;;
28551;SDS011;15752;49.560;8.708;2023-05-14T12:46:29;2.90;;;2.70;;
28551;SDS011;15752;49.560;8.708;2023-05-14T12:48:57;2.60;;;2.40;;
28551;SDS011;15752;49.560;8.708;2023-05-14T12:51:26;2.47;;;2.28;;
28551;SDS011;15752;49.560;8.708;2023-05-14T12:53:55;2.83;;;2.50;;
28551;SDS011;15752;49.560;8.708;2023-05-14T12:56:24;2.88;;;2.67;;
28551;SDS011;15752;49.560;8.708;2023-05-14T12:59:22;2.65;;;2.45;;
28551;SDS011;15752;49.560;8.708;2023-05-14T13:01:51;2.63;;;2.40;;
28551;SDS011;15752;49.560;8.708;2023-05-14T13:04:19;3.20;;;2.90;;
28551;SDS011;15752;49.560;8.708;2023-05-14T13:06:48;2.38;;;2.17;;
28551;SDS011;15752;49.560;8.708;2023-05-14T13:09:16;3.42;;;2.63;;
28551;SDS011;15752;49.560;8.708;2023-05-14T13:11:45;3.22;;;2.60;;
28551;SDS011;15752;49.560;8.708;2023-05-14T13:14:13;2.95;;;2.75;;
28551;SDS011;15752;49.560;8.708;2023-05-14T13:16:45;2.92;;;2.72;;
28551;SDS011;15752;49.560;8.708;2023-05-14T13:19:14;2.72;;;2.40;;
28551;SDS011;15752;49.560;8.708;2023-05-14T13:21:42;2.78;;;2.30;;
28551;SDS011;15752;49.560;8.708;2023-05-14T13:24:21;2.20;;;2.10;;
28551;SDS011;15752;49.560;8.708;2023-05-14T13:26:50;3.85;;;2.60;;
28551;SDS011;15752;49.560;8.708;2023-05-14T13:29:18;2.78;;;2.58;;
28551;SDS011;15752;49.560;8.708;2023-05-14T13:31:48;2.47;;;2.28;;
28551;SDS011;15752;49.560;8.708;2023-05-14T13:34:16;2.45;;;2.25;;
28551;SDS011;15752;49.560;8.708;2023-05-14T13:36:45;2.67;;;2.47;;
28551;SDS011;15752;49.560;8.708;2023-05-14T13:39:15;8.55;;;2.80;;
28551;SDS011;15752;49.560;8.708;2023-05-14T13:41:47;2.58;;;2.38;;
28551;SDS011;15752;49.560;8.708;2023-05-14T13:44:17;2.92;;;2.70;;
28551;SDS011;15752;49.560;8.708;2023-05-14T13:46:45;2.30;;;2.10;;
28551;SDS011;15752;49.560;8.708;2023-05-14T13:49:15;2.75;;;1.80;;
28551;SDS011;15752;49.560;8.708;2023-05-14T13:51:44;2.83;;;2.40;;
28551;SDS011;15752;49.560;8.708;2023-05-14T13:54:15;2.20;;;2.00;;
28551;SDS011;15752;49.560;8.708;2023-05-14T13:56:44;2.50;;;2.10;;
28551;SDS011;15752;49.560;8.708;2023-05-14T13:59:12;2.53;;;2.20;;
28551;SDS011;15752;49.560;8.708;2023-05-14T14:01:41;2.33;;;2.13;;
28551;SDS011;15752;49.560;8.708;2023-05-14T14:04:09;2.50;;;2.30;;
28551;SDS011;15752;49.560;8.708;2023-05-14T14:06:39;3.33;;;2.05;;
28551;SDS011;15752;49.560;8.708;2023-05-14T14:09:07;3.25;;;2.30;;
28551;SDS011;15752;49.560;8.708;2023-05-14T14:11:36;2.15;;;1.90;;
28551;SDS011;15752;49.560;8.708;2023-05-14T14:14:04;2.25;;;2.05;;
28551;SDS011;15752;49.560;8.708;2023-05-14T14:16:33;2.53;;;2.33;;
28551;SDS011;15752;49.560;8.708;2023-05-14T14:19:01;2.10;;;2.00;;
28551;SDS011;15752;49.560;8.708;2023-05-14T14:21:30;2.40;;;2.20;;
28551;SDS011;15752;49.560;8.708;2023-05-14T14:26:43;2.55;;;2.35;;
28551;SDS011;15752;49.560;8.708;2023-05-14T14:29:11;2.50;;;2.30;;
28551;SDS011;15752;49.560;8.708;2023-05-14T14:31:40;2.42;;;2.22;;
28551;SDS011;15752;49.560;8.708;2023-05-14T14:34:09;2.17;;;2.00;;
28551;SDS011;15752;49.560;8.708;2023-05-14T14:36:37;2.25;;;2.05;;
28551;SDS011;15752;49.560;8.708;2023-05-14T14:39:05;3.10;;;2.08;;
28551;SDS011;15752;49.560;8.708;2023-05-14T14:41:35;1.90;;;1.77;;
28551;SDS011;15752;49.560;8.708;2023-05-14T14:44:03;2.20;;;1.98;;
28551;SDS011;15752;49.560;8.708;2023-05-14T14:46:32;2.45;;;2.25;;
28551;SDS011;15752;49.560;8.708;2023-05-14T14:49:01;3.30;;;2.20;;
28551;SDS011;15752;49.560;8.708;2023-05-14T14:51:30;2.03;;;1.92;;
28551;SDS011;15752;49.560;8.708;2023-05-14T14:53:58;2.20;;;1.90;;
28551;SDS011;15752;49.560;8.708;2023-05-14T14:56:31;2.33;;;2.13;;
28551;SDS011;15752;49.560;8.708;2023-05-14T14:59:01;2.35;;;2.15;;
28551;SDS011;15752;49.560;8.708;2023-05-14T15:01:29;2.35;;;2.05;;
28551;SDS011;15752;49.560;8.708;2023-05-14T15:03:58;1.80;;;1.70;;